createdAt,value
2023-03-24T00:00:03.551Z,91.66
2023-03-24T00:01:26.245Z,91.66
2023-03-24T00:02:28.092Z,91.76
2023-03-24T00:03:26.814Z,91.91
2023-03-24T00:04:26.728Z,92.01
2023-03-24T00:05:15.122Z,92.01
2023-03-24T00:06:16.157Z,92.01
2023-03-24T00:07:15.465Z,92.01
2023-03-24T00:08:20.345Z,92.11
2023-03-24T00:09:21.216Z,92.01
2023-03-24T00:10:20.697Z,92.01
2023-03-24T00:11:20.817Z,92.01
2023-03-24T00:12:21.075Z,91.91
2023-03-24T00:13:21.155Z,92.01
2023-03-24T00:14:21.250Z,92.01
2023-03-24T00:15:21.693Z,91.91
2023-03-24T00:16:21.943Z,92.01
2023-03-24T00:17:21.715Z,91.91
2023-03-24T00:18:21.806Z,91.91
2023-03-24T00:19:22.021Z,92.01
2023-03-24T00:20:22.380Z,92.01
2023-03-24T00:21:22.302Z,91.91
2023-03-24T00:22:52.458Z,91.80
2023-03-24T00:23:52.643Z,91.70
2023-03-24T00:25:08.230Z,91.80
2023-03-24T00:26:08.330Z,91.70
2023-03-24T00:27:08.549Z,91.70
2023-03-24T00:28:08.640Z,91.70
2023-03-24T00:29:08.753Z,91.70
2023-03-24T00:30:08.856Z,91.80
2023-03-24T00:31:09.053Z,91.80
2023-03-24T00:32:09.110Z,91.70
2023-03-24T00:33:09.284Z,91.80
2023-03-24T00:34:09.351Z,91.80
2023-03-24T00:35:09.554Z,91.80
2023-03-24T00:36:09.689Z,91.80
2023-03-24T00:37:09.763Z,91.60
2023-03-24T00:38:09.857Z,91.60
2023-03-24T00:39:09.960Z,91.70
2023-03-24T00:40:10.074Z,91.60
2023-03-24T00:41:10.184Z,91.70
2023-03-24T00:42:10.307Z,91.80
2023-03-24T00:43:10.415Z,91.80
2023-03-24T00:44:10.511Z,91.80
2023-03-24T00:45:10.614Z,91.91
2023-03-24T00:46:10.714Z,91.80
2023-03-24T00:47:11.527Z,91.80
2023-03-24T00:48:10.997Z,91.80
2023-03-24T00:49:11.181Z,91.80
2023-03-24T00:50:11.302Z,91.80
2023-03-24T00:51:11.465Z,91.80
2023-03-24T00:52:11.563Z,91.80
2023-03-24T00:53:11.794Z,91.91
2023-03-24T00:54:11.905Z,92.01
2023-03-24T00:55:12.006Z,92.01
2023-03-24T00:56:12.446Z,91.91
2023-03-24T00:57:12.255Z,92.01
2023-03-24T00:58:12.301Z,92.01
2023-03-24T00:59:12.408Z,91.91
2023-03-24T01:00:12.502Z,92.01
2023-03-24T01:01:12.668Z,91.91
2023-03-24T01:02:12.764Z,91.80
2023-03-24T01:03:12.876Z,91.80
2023-03-24T01:04:43.439Z,91.70
2023-03-24T01:05:22.652Z,91.80
2023-03-24T01:06:22.772Z,91.70
2023-03-24T01:07:22.885Z,91.70
2023-03-24T01:08:23.009Z,91.80
2023-03-24T01:09:23.163Z,92.01
2023-03-24T01:10:23.260Z,92.11
2023-03-24T01:11:26.416Z,92.11
2023-03-24T01:12:23.527Z,92.21
2023-03-24T01:13:23.647Z,92.11
2023-03-24T01:14:23.766Z,92.21
2023-03-24T01:15:24.087Z,92.21
2023-03-24T01:16:24.164Z,92.21
2023-03-24T01:17:24.355Z,92.21
2023-03-24T01:18:24.495Z,92.32
2023-03-24T01:19:24.617Z,92.32
2023-03-24T01:20:24.743Z,92.32
2023-03-24T01:21:24.843Z,92.32
2023-03-24T01:22:24.971Z,92.32
2023-03-24T01:23:25.090Z,92.32
2023-03-24T01:24:25.204Z,92.21
2023-03-24T01:25:25.336Z,92.21
2023-03-24T01:26:25.467Z,92.21
2023-03-24T01:27:25.587Z,92.42
2023-03-24T01:28:25.704Z,92.32
2023-03-24T01:29:25.824Z,92.32
2023-03-24T01:30:25.972Z,92.32
2023-03-24T01:31:26.289Z,92.32
2023-03-24T01:32:26.330Z,92.32
2023-03-24T01:33:26.440Z,92.42
2023-03-24T01:34:26.827Z,92.32
2023-03-24T01:35:29.123Z,92.32
2023-03-24T01:36:26.992Z,92.42
2023-03-24T01:37:27.160Z,92.42
2023-03-24T01:38:27.260Z,92.42
2023-03-24T01:39:27.929Z,92.42
2023-03-24T01:40:27.597Z,92.52
2023-03-24T01:41:27.718Z,92.52
2023-03-24T01:42:59.766Z,92.52
2023-03-24T01:43:59.848Z,92.52
2023-03-24T01:45:00.032Z,92.42
2023-03-24T01:46:00.249Z,92.42
2023-03-24T01:47:00.290Z,92.32
2023-03-24T01:48:00.443Z,92.42
2023-03-24T01:49:00.525Z,92.42
2023-03-24T01:50:00.612Z,92.42
2023-03-24T01:51:00.701Z,92.42
2023-03-24T01:52:00.797Z,92.42
2023-03-24T01:53:00.925Z,92.32
2023-03-24T01:54:01.211Z,92.42
2023-03-24T01:55:01.190Z,92.37
2023-03-24T01:56:01.313Z,92.27
2023-03-24T01:57:01.433Z,92.27
2023-03-24T01:58:01.514Z,92.07
2023-03-24T01:59:01.622Z,92.17
2023-03-24T02:00:01.704Z,92.17
2023-03-24T02:01:01.817Z,92.27
2023-03-24T02:02:01.894Z,92.07
2023-03-24T02:03:02.045Z,92.07
2023-03-24T02:04:02.181Z,92.07
2023-03-24T02:05:02.245Z,92.07
2023-03-24T02:06:02.432Z,91.96
2023-03-24T02:07:02.536Z,91.96
2023-03-24T02:08:02.707Z,91.96
2023-03-24T02:09:02.808Z,91.76
2023-03-24T02:11:23.310Z,91.76
2023-03-24T02:12:23.227Z,91.76
2023-03-24T02:13:23.336Z,91.66
2023-03-24T02:14:23.457Z,91.56
2023-03-24T02:15:23.629Z,91.56
2023-03-24T02:16:23.989Z,91.46
2023-03-24T02:17:23.835Z,91.56
2023-03-24T02:18:24.059Z,91.66
2023-03-24T02:19:25.098Z,91.66
2023-03-24T02:20:24.276Z,91.46
2023-03-24T02:21:53.199Z,91.56
2023-03-24T02:22:53.280Z,91.46
2023-03-24T02:23:53.512Z,91.46
2023-03-24T02:24:53.575Z,91.46
2023-03-24T02:25:53.773Z,91.56
2023-03-24T02:28:03.420Z,91.56
2023-03-24T02:29:02.665Z,91.56
2023-03-24T02:30:01.099Z,91.56
2023-03-24T02:31:01.315Z,91.31
2023-03-24T02:32:04.074Z,91.31
2023-03-24T02:33:01.670Z,91.41
2023-03-24T02:34:01.729Z,91.31
2023-03-24T02:35:01.856Z,91.20
2023-03-24T02:36:01.946Z,91.11
2023-03-24T02:37:02.085Z,91.11
2023-03-24T02:38:02.188Z,91.11
2023-03-24T02:39:02.280Z,91.00
2023-03-24T02:40:02.423Z,91.00
2023-03-24T02:41:02.529Z,91.00
2023-03-24T02:42:02.645Z,90.90
2023-03-24T02:43:02.759Z,90.90
2023-03-24T02:44:02.885Z,91.00
2023-03-24T02:45:03.464Z,91.11
2023-03-24T02:46:03.170Z,91.31
2023-03-24T02:47:03.271Z,91.52
2023-03-24T02:48:03.388Z,91.72
2023-03-24T02:49:03.473Z,92.54
2023-03-24T02:50:03.592Z,92.74
2023-03-24T02:51:03.691Z,93.05
2023-03-24T02:52:03.916Z,93.45
2023-03-24T02:53:04.026Z,94.07
2023-03-24T02:54:04.153Z,94.37
2023-03-24T02:55:04.266Z,94.52
2023-03-24T02:56:04.376Z,95.03
2023-03-24T02:57:04.582Z,95.23
2023-03-24T02:58:04.652Z,95.64
2023-03-24T02:59:04.756Z,96.26
2023-03-24T03:00:04.876Z,95.64
2023-03-24T03:01:05.018Z,95.85
2023-03-24T03:02:05.176Z,96.26
2023-03-24T03:03:05.339Z,96.26
2023-03-24T03:04:05.499Z,96.87
2023-03-24T03:05:05.580Z,96.81
2023-03-24T03:06:05.698Z,97.02
2023-03-24T03:07:05.827Z,96.71
2023-03-24T03:08:06.224Z,96.41
2023-03-24T03:09:06.097Z,96.87
2023-03-24T03:10:06.214Z,96.81
2023-03-24T03:11:06.305Z,97.33
2023-03-24T03:12:06.530Z,97.02
2023-03-24T03:13:06.636Z,97.22
2023-03-24T03:14:06.851Z,97.22
2023-03-24T03:15:06.961Z,97.42
2023-03-24T03:16:07.111Z,97.22
2023-03-24T03:17:07.227Z,97.02
2023-03-24T03:18:07.599Z,97.33
2023-03-24T03:19:07.494Z,97.02
2023-03-24T03:20:07.721Z,97.12
2023-03-24T03:21:07.829Z,97.42
2023-03-24T03:22:07.967Z,97.53
2023-03-24T03:22:55.326Z,97.42
2023-03-24T03:23:52.405Z,97.42
2023-03-24T03:24:52.525Z,97.22
2023-03-24T03:26:16.687Z,97.74
2023-03-24T03:26:58.651Z,97.63
2023-03-24T03:27:58.828Z,97.74
2023-03-24T03:28:58.935Z,97.22
2023-03-24T03:30:41.226Z,97.58
2023-03-24T03:31:41.362Z,97.89
2023-03-24T03:32:44.160Z,97.94
2023-03-24T03:33:41.610Z,98.04
2023-03-24T03:34:41.747Z,98.04
2023-03-24T03:35:41.909Z,98.45
2023-03-24T03:36:41.986Z,98.45
2023-03-24T03:37:42.114Z,98.65
2023-03-24T03:38:42.220Z,98.65
2023-03-24T03:39:42.328Z,98.55
2023-03-24T03:40:42.432Z,98.55
2023-03-24T03:41:42.638Z,98.75
2023-03-24T03:42:42.777Z,98.71
2023-03-24T03:43:42.858Z,98.75
2023-03-24T03:44:42.964Z,98.86
2023-03-24T03:45:43.406Z,98.86
2023-03-24T03:46:43.407Z,98.75
2023-03-24T03:47:43.625Z,98.61
2023-03-24T03:48:43.619Z,98.71
2023-03-24T03:49:43.723Z,98.71
2023-03-24T03:50:43.851Z,98.71
2023-03-24T03:51:43.985Z,98.61
2023-03-24T03:52:44.120Z,98.61
2023-03-24T03:53:44.243Z,98.71
2023-03-24T03:54:44.378Z,98.81
2023-03-24T03:55:44.666Z,98.91
2023-03-24T03:56:44.690Z,99.02
2023-03-24T03:57:44.794Z,99.02
2023-03-24T03:58:44.907Z,99.32
2023-03-24T03:59:45.023Z,99.43
2023-03-24T04:00:45.137Z,99.32
2023-03-24T04:01:45.282Z,99.11
2023-03-24T04:02:45.407Z,99.11
2023-03-24T04:03:45.528Z,99.02
2023-03-24T04:05:39.020Z,99.22
2023-03-24T04:06:39.118Z,99.22
2023-03-24T04:07:39.240Z,99.02
2023-03-24T04:08:39.322Z,99.22
2023-03-24T04:09:39.433Z,99.11
2023-03-24T04:10:39.719Z,99.22
2023-03-24T04:11:39.752Z,99.22
2023-03-24T04:12:39.908Z,99.02
2023-03-24T04:13:40.048Z,99.02
2023-03-24T04:14:40.186Z,99.27
2023-03-24T04:15:40.643Z,99.07
2023-03-24T04:16:40.512Z,98.86
2023-03-24T04:17:40.518Z,98.77
2023-03-24T04:18:40.613Z,98.97
2023-03-24T04:19:40.712Z,98.66
2023-03-24T04:20:40.832Z,98.77
2023-03-24T04:21:40.917Z,98.77
2023-03-24T04:22:41.038Z,98.97
2023-03-24T04:23:42.124Z,99.07
2023-03-24T04:24:41.335Z,99.07
2023-03-24T04:25:41.452Z,99.07
2023-03-24T04:26:22.987Z,98.97
2023-03-24T04:27:23.100Z,98.77
2023-03-24T04:28:23.204Z,98.46
2023-03-24T04:29:23.284Z,98.25
2023-03-24T04:30:23.428Z,98.25
2023-03-24T04:31:23.657Z,98.15
2023-03-24T04:32:23.629Z,98.05
2023-03-24T04:33:24.228Z,97.95
2023-03-24T04:34:23.924Z,98.05
2023-03-24T04:35:24.333Z,98.05
2023-03-24T04:36:24.208Z,97.85
2023-03-24T04:37:24.314Z,97.95
2023-03-24T04:38:24.394Z,97.90
2023-03-24T04:39:24.582Z,97.80
2023-03-24T04:40:24.678Z,97.80
2023-03-24T04:41:24.776Z,97.60
2023-03-24T04:42:24.879Z,97.60
2023-03-24T04:43:24.979Z,97.60
2023-03-24T04:44:25.109Z,97.80
2023-03-24T04:45:25.187Z,97.70
2023-03-24T04:46:25.351Z,97.49
2023-03-24T04:47:25.396Z,96.98
2023-03-24T04:48:25.482Z,96.68
2023-03-24T04:49:25.600Z,96.73
2023-03-24T04:50:25.690Z,96.98
2023-03-24T04:51:25.778Z,96.88
2023-03-24T04:52:25.984Z,96.63
2023-03-24T04:53:26.081Z,96.63
2023-03-24T04:54:26.293Z,96.73
2023-03-24T04:55:26.379Z,96.73
2023-03-24T04:56:26.583Z,96.63
2023-03-24T04:57:26.644Z,96.53
2023-03-24T04:58:26.736Z,96.43
2023-03-24T04:59:26.821Z,96.33
2023-03-24T05:00:26.940Z,96.43
2023-03-24T05:01:27.073Z,96.33
2023-03-24T05:02:27.212Z,96.43
2023-03-24T05:03:27.335Z,96.53
2023-03-24T05:04:27.463Z,96.22
2023-03-24T05:05:27.556Z,96.02
2023-03-24T05:06:27.711Z,96.02
2023-03-24T05:07:27.818Z,95.81
2023-03-24T05:08:27.930Z,95.61
2023-03-24T05:09:28.036Z,95.72
2023-03-24T05:10:28.128Z,95.61
2023-03-24T05:11:28.220Z,95.57
2023-03-24T05:12:28.315Z,95.36
2023-03-24T05:13:28.390Z,95.26
2023-03-24T05:14:28.605Z,95.16
2023-03-24T05:15:28.780Z,95.16
2023-03-24T05:16:28.951Z,95.16
2023-03-24T05:17:15.316Z,95.16
2023-03-24T05:18:15.393Z,94.65
2023-03-24T05:19:15.612Z,94.65
2023-03-24T05:20:15.724Z,94.85
2023-03-24T05:21:15.833Z,94.65
2023-03-24T05:22:15.958Z,94.55
2023-03-24T05:23:16.072Z,94.45
2023-03-24T05:24:16.195Z,94.55
2023-03-24T05:25:16.299Z,94.45
2023-03-24T05:26:16.399Z,94.55
2023-03-24T05:27:16.625Z,94.55
2023-03-24T05:28:16.754Z,94.65
2023-03-24T05:29:16.838Z,94.65
2023-03-24T05:30:16.959Z,94.30
2023-03-24T05:31:17.162Z,94.20
2023-03-24T05:32:17.219Z,94.09
2023-03-24T05:33:17.332Z,94.20
2023-03-24T05:34:17.435Z,94.30
2023-03-24T05:35:17.579Z,94.09
2023-03-24T05:36:17.680Z,93.99
2023-03-24T05:37:17.885Z,93.79
2023-03-24T05:38:17.982Z,93.69
2023-03-24T05:39:18.182Z,93.79
2023-03-24T05:40:18.279Z,93.79
2023-03-24T05:41:18.417Z,93.89
2023-03-24T05:42:18.520Z,93.89
2023-03-24T05:43:18.637Z,94.09
2023-03-24T05:44:18.781Z,93.69
2023-03-24T05:45:18.876Z,93.69
2023-03-24T05:46:18.991Z,93.89
2023-03-24T05:47:19.089Z,93.89
2023-03-24T05:48:19.201Z,93.89
2023-03-24T05:49:19.297Z,93.89
2023-03-24T05:50:20.185Z,93.89
2023-03-24T05:51:27.350Z,93.79
2023-03-24T05:52:28.866Z,93.79
2023-03-24T05:53:27.597Z,94.09
2023-03-24T05:54:27.695Z,93.89
2023-03-24T05:55:27.801Z,93.89
2023-03-24T05:56:27.915Z,93.99
2023-03-24T05:57:28.041Z,94.20
2023-03-24T05:58:28.154Z,94.09
2023-03-24T05:59:28.235Z,93.99
2023-03-24T06:00:28.445Z,93.99
2023-03-24T06:01:31.391Z,94.09
2023-03-24T06:02:31.627Z,93.99
2023-03-24T06:03:31.892Z,93.99
2023-03-24T06:04:31.961Z,93.89
2023-03-24T06:05:32.099Z,93.74
2023-03-24T06:06:32.346Z,93.64
2023-03-24T06:07:32.506Z,93.64
2023-03-24T06:08:32.652Z,93.64
2023-03-24T06:09:32.787Z,93.44
2023-03-24T06:10:32.962Z,93.54
2023-03-24T06:11:33.402Z,93.54
2023-03-24T06:12:33.342Z,93.54
2023-03-24T06:13:33.488Z,93.64
2023-03-24T06:14:33.640Z,93.44
2023-03-24T06:15:33.824Z,93.54
2023-03-24T06:16:34.003Z,93.44
2023-03-24T06:17:34.134Z,93.44
2023-03-24T06:18:34.260Z,93.44
2023-03-24T06:19:34.413Z,93.44
2023-03-24T06:20:34.567Z,93.44
2023-03-24T06:21:35.294Z,93.64
2023-03-24T06:22:34.940Z,93.44
2023-03-24T06:23:34.963Z,93.50
2023-03-24T06:24:35.221Z,93.40
2023-03-24T06:25:35.340Z,93.09
2023-03-24T06:26:35.585Z,93.09
2023-03-24T06:27:35.743Z,92.68
2023-03-24T06:28:35.873Z,92.48
2023-03-24T06:29:36.010Z,92.58
2023-03-24T06:30:36.269Z,92.68
2023-03-24T06:31:37.384Z,92.79
2023-03-24T06:32:36.590Z,92.68
2023-03-24T06:33:36.698Z,92.68
2023-03-24T06:34:36.945Z,92.58
2023-03-24T06:35:37.106Z,92.54
2023-03-24T06:36:37.239Z,92.54
2023-03-24T06:37:37.381Z,92.44
2023-03-24T06:38:37.632Z,92.33
2023-03-24T06:39:37.762Z,92.23
2023-03-24T06:40:38.019Z,92.03
2023-03-24T06:41:38.147Z,91.93
2023-03-24T06:42:38.301Z,91.93
2023-03-24T06:43:38.524Z,92.03
2023-03-24T06:44:38.709Z,92.23
2023-03-24T06:45:38.952Z,92.03
2023-03-24T06:46:39.014Z,91.83
2023-03-24T06:47:13.165Z,91.93
2023-03-24T06:48:13.366Z,92.33
2023-03-24T06:49:13.486Z,92.64
2023-03-24T06:50:13.679Z,92.54
2023-03-24T06:51:13.863Z,92.64
2023-03-24T06:52:13.991Z,92.74
2023-03-24T06:53:14.271Z,93.05
2023-03-24T06:54:14.419Z,92.80
2023-03-24T06:55:14.811Z,92.70
2023-03-24T06:56:14.705Z,92.70
2023-03-24T06:57:15.043Z,92.60
2023-03-24T06:58:13.125Z,92.70
2023-03-24T06:59:13.221Z,92.80
2023-03-24T07:00:13.287Z,92.60
2023-03-24T07:01:13.495Z,92.70
2023-03-24T07:02:13.913Z,93.01
2023-03-24T07:03:13.809Z,93.01
2023-03-24T07:04:13.829Z,92.90
2023-03-24T07:05:13.922Z,92.70
2023-03-24T07:06:14.013Z,93.01
2023-03-24T07:07:44.852Z,92.70
2023-03-24T07:09:14.654Z,92.29
2023-03-24T07:10:15.388Z,91.88
2023-03-24T07:11:14.632Z,91.88
2023-03-24T07:12:15.328Z,92.19
2023-03-24T07:13:15.378Z,91.88
2023-03-24T07:14:14.995Z,91.58
2023-03-24T07:15:15.187Z,91.99
2023-03-24T07:16:15.300Z,91.78
2023-03-24T07:17:15.350Z,92.40
2023-03-24T07:18:15.492Z,91.94
2023-03-24T07:19:15.631Z,92.35
2023-03-24T07:20:15.749Z,92.35
2023-03-24T07:21:15.866Z,91.53
2023-03-24T07:22:15.960Z,91.74
2023-03-24T07:23:20.707Z,91.13
2023-03-24T07:24:20.843Z,90.17
2023-03-24T07:25:21.730Z,90.37
2023-03-24T07:26:21.212Z,90.58
2023-03-24T07:27:21.439Z,90.33
2023-03-24T07:28:21.526Z,89.11
2023-03-24T07:29:21.695Z,89.01
2023-03-24T07:30:27.303Z,88.56
2023-03-24T07:31:23.108Z,87.65
2023-03-24T07:32:22.230Z,86.76
2023-03-24T07:33:22.323Z,85.46
2023-03-24T07:34:22.783Z,83.80
2023-03-24T07:35:22.709Z,84.04
2023-03-24T07:36:22.848Z,84.38
2023-03-24T07:37:24.430Z,84.83
2023-03-24T07:38:23.103Z,86.08
2023-03-24T07:39:23.235Z,85.68
2023-03-24T07:40:23.366Z,86.33
2023-03-24T07:41:23.514Z,87.14
2023-03-24T07:42:23.953Z,87.75
2023-03-24T07:43:23.867Z,87.55
2023-03-24T07:43:56.488Z,88.16
2023-03-24T07:44:57.226Z,88.56
2023-03-24T07:45:56.949Z,87.95
2023-03-24T07:46:57.088Z,88.36
2023-03-24T07:47:57.363Z,87.79
2023-03-24T07:48:59.529Z,87.69
2023-03-24T07:49:58.617Z,88.30
2023-03-24T07:50:58.320Z,88.20
2023-03-24T07:51:57.914Z,88.91
2023-03-24T07:52:59.968Z,89.72
2023-03-24T07:53:58.249Z,90.94
2023-03-24T07:54:58.393Z,91.09
2023-03-24T07:55:58.537Z,90.99
2023-03-24T07:56:58.714Z,91.39
2023-03-24T07:58:40.068Z,92.41
2023-03-24T07:59:40.787Z,92.41
2023-03-24T08:00:40.227Z,93.06
2023-03-24T08:01:40.480Z,93.37
2023-03-24T08:02:40.507Z,91.94
2023-03-24T08:03:41.059Z,92.45
2023-03-24T08:04:40.719Z,92.65
2023-03-24T08:05:40.772Z,92.86
2023-03-24T08:06:41.028Z,93.06
2023-03-24T08:07:42.545Z,93.26
2023-03-24T08:08:41.208Z,93.67
2023-03-24T08:09:41.344Z,93.62
2023-03-24T08:10:41.548Z,94.43
2023-03-24T08:11:41.656Z,94.63
2023-03-24T08:12:41.848Z,94.43
2023-03-24T08:13:41.909Z,94.63
2023-03-24T08:14:42.005Z,94.02
2023-03-24T08:15:42.115Z,94.02
2023-03-24T08:16:42.902Z,93.71
2023-03-24T08:17:42.320Z,93.92
2023-03-24T08:18:42.438Z,94.43
2023-03-24T08:19:56.169Z,94.23
2023-03-24T08:20:43.634Z,94.63
2023-03-24T08:21:42.725Z,94.43
2023-03-24T08:22:42.854Z,94.73
2023-03-24T08:23:42.981Z,94.84
2023-03-24T08:24:43.074Z,93.92
2023-03-24T08:25:43.169Z,94.23
2023-03-24T08:26:43.273Z,94.63
2023-03-24T08:27:43.359Z,94.43
2023-03-24T08:28:43.480Z,94.12
2023-03-24T08:29:43.565Z,94.23
2023-03-24T08:30:43.769Z,93.82
2023-03-24T08:31:43.768Z,94.12
2023-03-24T08:32:43.950Z,93.92
2023-03-24T08:33:44.000Z,93.62
2023-03-24T08:34:44.092Z,93.62
2023-03-24T08:35:44.246Z,93.51
2023-03-24T08:36:44.454Z,93.51
2023-03-24T08:37:44.482Z,93.31
2023-03-24T08:38:44.581Z,93.41
2023-03-24T08:39:44.676Z,93.10
2023-03-24T08:40:44.791Z,93.51
2023-03-24T08:41:44.859Z,93.51
2023-03-24T08:42:44.988Z,93.21
2023-03-24T08:43:45.092Z,93.41
2023-03-24T08:44:45.192Z,93.10
2023-03-24T08:45:45.370Z,93.41
2023-03-24T08:46:45.476Z,93.51
2023-03-24T08:47:45.638Z,93.51
2023-03-24T08:48:45.700Z,93.41
2023-03-24T08:49:45.831Z,93.71
2023-03-24T08:50:45.948Z,93.06
2023-03-24T08:51:46.342Z,93.37
2023-03-24T08:52:46.179Z,92.96
2023-03-24T08:53:39.068Z,92.65
2023-03-24T08:54:39.555Z,92.76
2023-03-24T08:55:39.258Z,92.45
2023-03-24T08:56:39.443Z,92.51
2023-03-24T08:57:39.562Z,91.60
2023-03-24T08:58:39.709Z,92.10
2023-03-24T08:59:39.850Z,91.80
2023-03-24T09:00:39.995Z,91.39
2023-03-24T09:01:40.684Z,91.39
2023-03-24T09:02:40.301Z,91.29
2023-03-24T09:03:40.430Z,91.60
2023-03-24T09:04:22.599Z,91.49
2023-03-24T09:05:26.956Z,91.39
2023-03-24T09:06:22.237Z,91.19
2023-03-24T09:07:21.356Z,91.39
2023-03-24T09:08:21.483Z,91.39
2023-03-24T09:09:21.592Z,91.09
2023-03-24T09:10:21.699Z,91.19
2023-03-24T09:11:07.701Z,91.19
2023-03-24T09:12:07.166Z,91.19
2023-03-24T09:13:07.259Z,91.19
2023-03-24T09:14:07.436Z,90.78
2023-03-24T09:15:07.544Z,91.09
2023-03-24T09:16:07.699Z,91.19
2023-03-24T09:17:07.779Z,91.29
2023-03-24T09:18:07.903Z,91.09
2023-03-24T09:19:08.004Z,91.09
2023-03-24T09:20:08.127Z,90.99
2023-03-24T09:21:08.212Z,91.09
2023-03-24T09:22:08.333Z,90.99
2023-03-24T09:23:08.433Z,90.68
2023-03-24T09:24:08.651Z,90.58
2023-03-24T09:25:08.930Z,90.53
2023-03-24T09:26:08.946Z,90.23
2023-03-24T09:27:09.066Z,90.33
2023-03-24T09:28:09.658Z,90.13
2023-03-24T09:29:09.464Z,89.83
2023-03-24T09:30:09.867Z,90.13
2023-03-24T09:31:10.088Z,89.52
2023-03-24T09:32:10.505Z,89.72
2023-03-24T09:33:43.038Z,89.28
2023-03-24T09:35:08.869Z,88.42
2023-03-24T09:36:09.005Z,87.71
2023-03-24T09:37:09.219Z,87.16
2023-03-24T09:38:09.235Z,86.31
2023-03-24T09:39:09.334Z,85.76
2023-03-24T09:40:09.746Z,84.30
2023-03-24T09:41:09.644Z,84.16
2023-03-24T09:42:09.683Z,82.34
2023-03-24T09:43:09.762Z,83.01
2023-03-24T09:44:09.868Z,82.60
2023-03-24T09:45:09.935Z,82.40
2023-03-24T09:46:10.202Z,82.16
2023-03-24T09:47:10.235Z,81.25
2023-03-24T09:48:10.494Z,81.59
2023-03-24T09:49:10.436Z,81.99
2023-03-24T09:50:10.537Z,81.99
2023-03-24T09:51:11.390Z,81.90
2023-03-24T09:52:11.043Z,81.79
2023-03-24T09:53:11.104Z,81.18
2023-03-24T09:54:11.511Z,81.45
2023-03-24T09:55:23.816Z,81.09
2023-03-24T09:56:23.965Z,81.45
2023-03-24T09:58:14.850Z,80.94
2023-03-24T09:59:15.009Z,81.25
2023-03-24T10:00:15.112Z,81.35
2023-03-24T10:01:15.790Z,81.55
2023-03-24T10:02:15.433Z,81.35
2023-03-24T10:03:15.694Z,80.98
2023-03-24T10:04:15.891Z,81.18
2023-03-24T10:05:22.920Z,81.39
2023-03-24T10:06:15.991Z,81.18
2023-03-24T10:07:16.075Z,81.69
2023-03-24T10:08:16.586Z,81.09
2023-03-24T10:09:16.476Z,80.98
2023-03-24T10:10:16.591Z,80.07
2023-03-24T10:11:16.687Z,78.86
2023-03-24T10:12:16.894Z,77.84
2023-03-24T10:13:16.999Z,77.84
2023-03-24T10:14:17.228Z,77.75
2023-03-24T10:15:24.284Z,77.84
2023-03-24T10:16:18.581Z,78.19
2023-03-24T10:17:17.662Z,78.08
2023-03-24T10:18:17.874Z,78.39
2023-03-24T10:19:17.978Z,78.59
2023-03-24T10:20:18.125Z,79.00
2023-03-24T10:21:18.236Z,79.10
2023-03-24T10:22:18.360Z,79.50
2023-03-24T10:23:18.462Z,79.71
2023-03-24T10:24:18.696Z,80.92
2023-03-24T10:25:18.801Z,81.67
2023-03-24T10:26:18.924Z,81.77
2023-03-24T10:27:19.115Z,81.26
2023-03-24T10:28:19.235Z,81.37
2023-03-24T10:29:19.336Z,81.57
2023-03-24T10:30:19.455Z,80.92
2023-03-24T10:31:19.607Z,80.68
2023-03-24T10:32:19.695Z,80.24
2023-03-24T10:33:19.804Z,79.08
2023-03-24T10:34:19.947Z,78.64
2023-03-24T10:35:20.054Z,78.24
2023-03-24T10:36:20.233Z,77.19
2023-03-24T10:37:20.320Z,76.82
2023-03-24T10:38:20.416Z,74.12
2023-03-24T10:39:24.257Z,73.68
2023-03-24T10:40:21.613Z,72.34
2023-03-24T10:41:20.786Z,72.67
2023-03-24T10:42:20.988Z,71.73
2023-03-24T10:43:21.063Z,72.58
2023-03-24T10:44:43.998Z,72.81
2023-03-24T10:45:44.076Z,72.95
2023-03-24T10:46:44.158Z,73.99
2023-03-24T10:47:44.284Z,74.93
2023-03-24T10:48:44.423Z,75.44
2023-03-24T10:49:44.481Z,75.57
2023-03-24T10:50:45.119Z,76.08
2023-03-24T10:51:50.061Z,76.39
2023-03-24T10:52:50.191Z,77.33
2023-03-24T10:53:52.283Z,76.93
2023-03-24T10:54:50.478Z,76.93
2023-03-24T10:55:51.186Z,77.53
2023-03-24T10:56:50.978Z,77.03
2023-03-24T10:57:50.974Z,76.93
2023-03-24T10:58:51.701Z,76.93
2023-03-24T10:59:51.268Z,76.42
2023-03-24T11:00:51.446Z,76.32
2023-03-24T11:01:51.915Z,76.15
2023-03-24T11:03:15.696Z,75.81
2023-03-24T11:04:15.778Z,75.71
2023-03-24T11:05:15.916Z,75.31
2023-03-24T11:05:49.486Z,74.80
2023-03-24T11:06:49.386Z,74.70
2023-03-24T11:07:49.490Z,74.87
2023-03-24T11:08:50.349Z,73.96
2023-03-24T11:09:41.492Z,73.96
2023-03-24T11:10:41.612Z,73.75
2023-03-24T11:11:41.733Z,73.69
2023-03-24T11:12:42.617Z,73.75
2023-03-24T11:13:42.048Z,73.28
2023-03-24T11:14:42.177Z,73.28
2023-03-24T11:15:42.309Z,73.35
2023-03-24T11:16:42.457Z,73.25
2023-03-24T11:17:42.623Z,72.44
2023-03-24T11:18:34.989Z,72.81
2023-03-24T11:19:35.240Z,72.11
2023-03-24T11:20:35.213Z,71.26
2023-03-24T11:21:35.435Z,69.18
2023-03-24T11:22:35.530Z,64.93
2023-03-24T11:23:35.667Z,64.00
2023-03-24T11:24:35.769Z,62.30
2023-03-24T11:25:20.547Z,62.16
2023-03-24T11:26:20.664Z,62.79
2023-03-24T11:27:21.024Z,64.16
2023-03-24T11:28:20.912Z,65.06
2023-03-24T11:29:21.569Z,64.99
2023-03-24T11:30:21.198Z,65.12
2023-03-24T11:31:21.631Z,65.22
2023-03-24T11:32:21.410Z,65.89
2023-03-24T11:33:21.494Z,66.73
2023-03-24T11:34:22.693Z,66.53
2023-03-24T11:36:21.961Z,66.09
2023-03-24T11:37:22.061Z,65.89
2023-03-24T11:38:22.163Z,65.39
2023-03-24T11:39:22.410Z,65.36
2023-03-24T11:40:22.518Z,64.65
2023-03-24T11:41:22.760Z,63.99
2023-03-24T11:42:22.861Z,63.39
2023-03-24T11:43:23.070Z,63.59
2023-03-24T11:44:23.220Z,63.08
2023-03-24T11:45:23.337Z,63.18
2023-03-24T11:46:23.623Z,63.48
2023-03-24T11:47:23.687Z,62.62
2023-03-24T11:48:23.738Z,61.15
2023-03-24T11:49:23.993Z,59.82
2023-03-24T11:50:24.092Z,60.35
2023-03-24T11:51:24.188Z,60.35
2023-03-24T11:52:24.283Z,60.28
2023-03-24T11:53:24.413Z,61.41
2023-03-24T11:54:25.432Z,62.07
2023-03-24T11:55:24.606Z,62.65
2023-03-24T11:56:24.698Z,62.65
2023-03-24T11:57:24.797Z,62.68
2023-03-24T11:58:24.911Z,63.31
2023-03-24T11:59:25.024Z,63.54
2023-03-24T12:00:25.115Z,64.28
2023-03-24T12:00:59.718Z,64.89
2023-03-24T12:01:59.832Z,65.19
2023-03-24T12:03:00.048Z,65.16
2023-03-24T12:04:00.385Z,64.98
2023-03-24T12:05:00.318Z,64.78
2023-03-24T12:06:00.455Z,64.78
2023-03-24T12:07:00.583Z,65.72
2023-03-24T12:08:00.714Z,65.99
2023-03-24T12:09:00.927Z,65.52
2023-03-24T12:10:01.080Z,65.82
2023-03-24T12:11:01.231Z,65.82
2023-03-24T12:12:01.384Z,65.72
2023-03-24T12:13:02.504Z,65.45
2023-03-24T12:14:01.762Z,65.65
2023-03-24T12:15:01.892Z,65.62
2023-03-24T12:16:02.082Z,65.55
2023-03-24T12:17:02.194Z,65.72
2023-03-24T12:18:02.413Z,65.85
2023-03-24T12:19:02.552Z,66.13
2023-03-24T12:20:02.846Z,65.52
2023-03-24T12:21:02.851Z,65.72
2023-03-24T12:22:03.108Z,65.82
2023-03-24T12:23:52.437Z,65.92
2023-03-24T12:24:53.319Z,65.72
2023-03-24T12:25:52.774Z,65.75
2023-03-24T12:26:53.058Z,66.66
2023-03-24T12:27:53.076Z,66.42
2023-03-24T12:28:53.208Z,65.72
2023-03-24T12:29:53.353Z,66.16
2023-03-24T12:30:53.460Z,66.29
2023-03-24T12:31:53.622Z,66.59
2023-03-24T12:32:53.744Z,66.82
2023-03-24T12:33:53.956Z,67.33
2023-03-24T12:34:54.101Z,67.26
2023-03-24T12:35:54.422Z,67.36
2023-03-24T12:36:54.340Z,67.66
2023-03-24T12:37:54.693Z,67.46
2023-03-24T12:38:54.696Z,67.86
2023-03-24T12:39:54.937Z,67.86
2023-03-24T12:40:55.256Z,67.66
2023-03-24T12:41:55.260Z,67.56
2023-03-24T12:42:55.390Z,67.46
2023-03-24T12:43:55.574Z,67.46
2023-03-24T12:44:55.712Z,67.97
2023-03-24T12:45:55.941Z,67.36
2023-03-24T12:46:56.106Z,67.46
2023-03-24T12:47:56.200Z,67.66
2023-03-24T12:48:56.271Z,67.66
2023-03-24T12:49:56.530Z,67.66
2023-03-24T12:50:56.663Z,67.90
2023-03-24T12:51:56.825Z,68.71
2023-03-24T12:53:07.770Z,69.01
2023-03-24T12:53:58.092Z,68.30
2023-03-24T12:54:57.216Z,68.60
2023-03-24T12:55:57.350Z,69.55
2023-03-24T12:56:57.493Z,69.24
2023-03-24T12:57:57.641Z,68.94
2023-03-24T12:58:57.781Z,68.74
2023-03-24T12:59:58.132Z,68.94
2023-03-24T13:00:58.177Z,68.94
2023-03-24T13:01:58.323Z,68.94
2023-03-24T13:02:58.548Z,68.94